createdAt,value
2018-05-23T00:00:10.789Z,3.63
2018-05-23T00:02:43.411Z,5.33
2018-05-23T00:05:16.019Z,5.53
2018-05-23T00:07:48.617Z,4.30
2018-05-23T00:10:21.028Z,5.03
2018-05-23T00:12:54.361Z,4.47
2018-05-23T00:15:27.013Z,4.80
2018-05-23T00:18:00.383Z,4.10
2018-05-23T00:20:32.795Z,5.20
2018-05-23T00:23:05.245Z,5.37
2018-05-23T00:25:38.559Z,5.40
2018-05-23T00:28:11.876Z,5.00
2018-05-23T00:30:44.368Z,3.93
2018-05-23T00:33:17.807Z,4.50
2018-05-23T00:35:50.302Z,4.23
2018-05-23T00:38:23.718Z,4.27
2018-05-23T00:40:56.182Z,4.87
2018-05-23T00:43:28.702Z,4.33
2018-05-23T00:46:02.052Z,4.27
2018-05-23T00:48:36.107Z,5.50
2018-05-23T00:51:08.866Z,6.03
2018-05-23T00:53:41.340Z,5.70
2018-05-23T00:56:13.846Z,5.20
2018-05-23T00:58:47.979Z,5.40
2018-05-23T01:01:20.788Z,5.63
2018-05-23T01:03:54.020Z,4.93
2018-05-23T01:06:26.736Z,5.50
2018-05-23T01:08:59.181Z,4.30
2018-05-23T01:11:31.637Z,5.10
2018-05-23T01:14:04.924Z,4.63
2018-05-23T01:16:37.477Z,3.77
2018-05-23T01:19:10.991Z,5.20
2018-05-23T01:21:44.967Z,5.40
2018-05-23T01:24:17.799Z,5.93
2018-05-23T01:26:51.209Z,6.33
2018-05-23T01:29:23.739Z,5.60
2018-05-23T01:31:56.266Z,5.40
2018-05-23T01:34:28.714Z,4.80
2018-05-23T01:37:02.095Z,5.20
2018-05-23T01:39:34.570Z,5.10
2018-05-23T01:42:06.974Z,5.33
2018-05-23T01:44:40.219Z,5.57
2018-05-23T01:47:13.683Z,5.53
2018-05-23T01:49:46.340Z,5.40
2018-05-23T01:52:18.941Z,5.97
2018-05-23T01:54:51.417Z,5.10
2018-05-23T01:57:24.802Z,5.23
2018-05-23T01:59:57.253Z,5.10
2018-05-23T02:02:29.762Z,4.80
2018-05-23T02:05:02.233Z,5.27
2018-05-23T02:07:35.537Z,7.07
2018-05-23T02:10:08.387Z,4.87
2018-05-23T02:12:40.908Z,4.53
2018-05-23T02:15:13.440Z,4.60
2018-05-23T02:17:46.903Z,4.60
2018-05-23T02:20:20.189Z,6.40
2018-05-23T02:22:52.771Z,5.40
2018-05-23T02:25:25.297Z,5.27
2018-05-23T02:27:58.574Z,5.70
2018-05-23T02:30:31.389Z,5.70
2018-05-23T02:33:03.935Z,5.53
2018-05-23T02:35:37.003Z,5.10
2018-05-23T02:38:10.364Z,4.80
2018-05-23T02:40:44.321Z,5.50
2018-05-23T02:43:17.220Z,4.80
2018-05-23T02:45:49.703Z,5.80
2018-05-23T02:48:22.248Z,5.00
2018-05-23T02:50:55.640Z,5.90
2018-05-23T02:53:28.089Z,5.00
2018-05-23T02:56:01.492Z,5.67
2018-05-23T02:58:34.801Z,5.40
2018-05-23T03:01:07.451Z,5.13
2018-05-23T03:03:40.763Z,4.57
2018-05-23T03:06:13.332Z,4.80
2018-05-23T03:08:46.698Z,5.27
2018-05-23T03:11:20.053Z,5.23
2018-05-23T03:13:52.356Z,4.90
2018-05-23T03:16:25.170Z,5.50
2018-05-23T03:18:58.043Z,4.70
2018-05-23T03:21:30.556Z,5.03
2018-05-23T03:24:04.753Z,5.00
2018-05-23T03:26:37.520Z,4.83
2018-05-23T03:29:10.831Z,5.40
2018-05-23T03:31:44.975Z,4.60
2018-05-23T03:34:18.558Z,4.90
2018-05-23T03:36:51.259Z,5.67
2018-05-23T03:39:24.653Z,4.97
2018-05-23T03:41:57.983Z,5.23
2018-05-23T03:44:30.635Z,5.10
2018-05-23T03:47:03.922Z,5.50
2018-05-23T03:49:37.377Z,4.50
2018-05-23T03:52:10.051Z,4.50
2018-05-23T03:54:42.571Z,5.43
2018-05-23T03:57:16.601Z,4.70
2018-05-23T04:00:07.821Z,5.60
2018-05-23T04:06:07.447Z,5.10
2018-05-23T04:08:39.821Z,4.97
2018-05-23T04:11:12.543Z,5.43
2018-05-23T04:13:45.076Z,4.67
2018-05-23T04:16:17.637Z,4.87
2018-05-23T04:18:51.728Z,4.90
2018-05-23T04:21:25.406Z,4.50
2018-05-23T04:23:58.363Z,4.40
2018-05-23T04:26:31.697Z,5.00
2018-05-23T04:29:04.206Z,4.33
2018-05-23T04:31:37.561Z,6.37
2018-05-23T04:34:10.889Z,5.13
2018-05-23T04:36:44.167Z,4.57
2018-05-23T04:39:17.033Z,5.03
2018-05-23T04:41:50.270Z,5.37
2018-05-23T04:44:23.633Z,4.70
2018-05-23T04:46:56.244Z,4.97
2018-05-23T04:49:28.759Z,4.50
2018-05-23T04:52:02.201Z,4.63
2018-05-23T04:54:36.342Z,5.00
2018-05-23T04:57:10.021Z,4.73
2018-05-23T04:59:42.684Z,4.40
2018-05-23T05:02:15.342Z,4.10
2018-05-23T05:04:47.730Z,4.17
2018-05-23T05:07:21.515Z,4.40
2018-05-23T05:09:54.531Z,4.70
2018-05-23T05:12:26.936Z,4.00
2018-05-23T05:14:59.943Z,5.03
2018-05-23T05:17:32.929Z,4.57
2018-05-23T05:20:05.371Z,4.70
2018-05-23T05:22:38.003Z,4.43
2018-05-23T05:25:10.445Z,4.23
2018-05-23T05:27:43.887Z,4.50
2018-05-23T05:30:17.123Z,4.77
2018-05-23T05:32:49.948Z,4.47
2018-05-23T05:35:23.443Z,4.30
2018-05-23T05:37:56.109Z,4.00
2018-05-23T05:40:28.608Z,5.80
2018-05-23T05:43:01.130Z,4.20
2018-05-23T05:45:33.710Z,4.40
2018-05-23T05:48:07.081Z,4.70
2018-05-23T05:50:40.313Z,5.10
2018-05-23T05:53:13.044Z,4.83
2018-05-23T05:55:47.168Z,4.47
2018-05-23T05:58:20.620Z,4.83
2018-05-23T06:00:53.384Z,4.57
2018-05-23T06:03:25.883Z,4.87
2018-05-23T06:05:59.191Z,4.23
2018-05-23T06:08:32.467Z,4.30
2018-05-23T06:11:06.564Z,5.00
2018-05-23T06:13:39.199Z,4.60
2018-05-23T06:16:11.661Z,4.57
2018-05-23T06:18:45.155Z,4.57
2018-05-23T06:21:17.706Z,4.27
2018-05-23T06:23:50.245Z,4.33
2018-05-23T06:26:22.662Z,4.33
2018-05-23T06:28:55.150Z,4.20
2018-05-23T06:31:27.653Z,3.70
2018-05-23T06:34:00.120Z,4.20
2018-05-23T06:36:32.781Z,4.10
2018-05-23T06:39:05.539Z,4.47
2018-05-23T06:41:38.083Z,4.37
2018-05-23T06:44:11.334Z,3.83
2018-05-23T06:46:43.993Z,3.57
2018-05-23T06:49:18.092Z,4.10
2018-05-23T06:51:50.857Z,4.53
2018-05-23T06:54:23.306Z,4.40
2018-05-23T06:56:56.533Z,4.33
2018-05-23T06:59:29.201Z,4.50
2018-05-23T07:02:01.587Z,4.27
2018-05-23T07:04:34.072Z,3.73
2018-05-23T07:07:09.557Z,4.20
2018-05-23T07:09:44.260Z,4.10
2018-05-23T07:12:17.989Z,4.10
2018-05-23T07:14:50.816Z,4.83
2018-05-23T07:17:23.248Z,3.97
2018-05-23T07:19:55.682Z,3.97
2018-05-23T07:22:28.270Z,4.27
2018-05-23T07:25:01.653Z,3.40
2018-05-23T07:27:35.775Z,3.67
2018-05-23T07:30:08.571Z,4.17
2018-05-23T07:32:41.036Z,4.17
2018-05-23T07:35:14.564Z,4.23
2018-05-23T07:37:48.604Z,4.03
2018-05-23T07:40:21.553Z,4.73
2018-05-23T07:42:54.906Z,4.47
2018-05-23T07:45:27.566Z,5.03
2018-05-23T07:48:00.239Z,5.57
2018-05-23T07:50:33.391Z,5.10
2018-05-23T07:53:06.115Z,3.77
2018-05-23T07:55:38.619Z,3.90
2018-05-23T07:58:12.729Z,3.73
2018-05-23T08:00:45.456Z,4.17
2018-05-23T08:03:17.879Z,4.50
2018-05-23T08:05:51.172Z,4.20
2018-05-23T08:08:23.799Z,3.80
2018-05-23T08:10:57.146Z,4.33
2018-05-23T08:13:29.666Z,4.27
2018-05-23T08:16:02.814Z,4.90
2018-05-23T08:18:35.576Z,4.10
2018-05-23T08:21:08.170Z,4.37
2018-05-23T08:23:42.190Z,4.23
2018-05-23T08:26:15.019Z,5.00
2018-05-23T08:28:48.272Z,4.40
2018-05-23T08:31:21.399Z,4.70
2018-05-23T08:33:54.802Z,4.73
2018-05-23T08:36:27.672Z,4.87
2018-05-23T08:39:00.107Z,6.03
2018-05-23T08:41:33.590Z,6.07
2018-05-23T08:44:06.034Z,4.40
2018-05-23T08:46:38.472Z,5.37
2018-05-23T08:49:12.564Z,6.77
2018-05-23T08:51:45.108Z,5.57
2018-05-23T08:54:17.572Z,4.97
2018-05-23T08:56:51.118Z,10.37
2018-05-23T08:59:25.185Z,5.60
2018-05-23T09:01:58.932Z,6.50
2018-05-23T09:04:32.141Z,4.67
2018-05-23T09:07:05.424Z,4.83
2018-05-23T09:09:37.909Z,6.50
2018-05-23T09:12:11.396Z,4.70
2018-05-23T09:14:43.835Z,7.50
2018-05-23T09:17:17.108Z,5.73
2018-05-23T09:19:49.579Z,5.40
2018-05-23T09:22:22.046Z,4.43
2018-05-23T09:24:54.504Z,6.60
2018-05-23T09:27:27.900Z,6.10
2018-05-23T09:30:00.303Z,6.13
2018-05-23T09:32:33.497Z,5.70
2018-05-23T09:35:06.241Z,7.30
2018-05-23T09:37:39.737Z,5.23
2018-05-23T09:40:12.905Z,6.83
2018-05-23T09:42:45.600Z,6.53
2018-05-23T09:45:18.015Z,6.93
2018-05-23T09:47:50.499Z,6.40
2018-05-23T09:50:23.106Z,5.57
2018-05-23T09:52:55.795Z,6.30
2018-05-23T09:55:28.295Z,5.10
2018-05-23T09:58:00.857Z,7.50
2018-05-23T10:00:33.243Z,6.17
2018-05-23T10:03:07.659Z,6.53
2018-05-23T10:05:40.243Z,5.57
2018-05-23T10:08:12.785Z,5.40
2018-05-23T10:10:45.449Z,5.43
2018-05-23T10:13:17.875Z,5.30
2018-05-23T10:15:50.961Z,5.20
2018-05-23T10:18:23.938Z,5.67
2018-05-23T10:20:56.542Z,5.40
2018-05-23T10:23:29.864Z,6.10
2018-05-23T10:26:02.336Z,4.70
2018-05-23T10:28:34.933Z,4.70
2018-05-23T10:31:08.466Z,4.93
2018-05-23T10:33:42.533Z,4.40
2018-05-23T10:36:15.281Z,4.23
2018-05-23T10:38:48.657Z,5.87
2018-05-23T10:41:22.070Z,4.63
2018-05-23T10:43:54.733Z,4.73
2018-05-23T10:46:27.296Z,4.47
2018-05-23T10:49:01.429Z,4.70
2018-05-23T10:51:34.987Z,4.20
2018-05-23T10:54:07.556Z,4.23
2018-05-23T10:56:40.031Z,4.20
2018-05-23T10:59:13.453Z,4.20
2018-05-23T11:01:46.666Z,4.43
2018-05-23T11:04:20.041Z,4.70
2018-05-23T11:06:52.570Z,6.20
2018-05-23T11:09:25.114Z,4.70
2018-05-23T11:11:58.409Z,4.13
2018-05-23T11:14:31.092Z,4.03
2018-05-23T11:17:03.562Z,5.70
2018-05-23T11:19:36.125Z,5.00
2018-05-23T11:22:09.505Z,4.33
2018-05-23T11:24:42.786Z,4.43
2018-05-23T11:27:15.652Z,3.70
2018-05-23T11:29:48.978Z,5.60
2018-05-23T11:32:22.223Z,4.83
2018-05-23T11:34:55.770Z,5.40
2018-05-23T11:37:29.201Z,7.43
2018-05-23T11:40:09.541Z,5.20
2018-05-23T11:42:41.987Z,4.67
2018-05-23T11:45:15.437Z,7.77
2018-05-23T11:47:48.753Z,5.43
2018-05-23T11:50:21.324Z,9.70
2018-05-23T11:52:54.503Z,7.57
2018-05-23T11:55:28.164Z,5.60
2018-05-23T11:58:00.729Z,6.03
2018-05-23T12:00:33.915Z,7.00
2018-05-23T12:03:06.495Z,6.80
2018-05-23T12:05:39.623Z,7.03
2018-05-23T12:08:12.319Z,4.97
2018-05-23T12:10:45.638Z,6.10
2018-05-23T12:13:18.125Z,4.93
2018-05-23T12:15:51.513Z,6.13
2018-05-23T12:18:24.883Z,5.20
2018-05-23T12:20:57.420Z,6.80
2018-05-23T12:23:31.496Z,5.50
2018-05-23T12:26:04.373Z,5.33
2018-05-23T12:28:37.715Z,6.00
2018-05-23T12:31:12.034Z,4.93
2018-05-23T12:33:45.380Z,4.40
2018-05-23T12:36:18.516Z,4.63
2018-05-23T12:38:52.545Z,5.73
2018-05-23T12:41:25.368Z,5.57
2018-05-23T12:43:58.620Z,6.10
2018-05-23T12:46:32.825Z,5.43
2018-05-23T12:49:05.564Z,5.27
2018-05-23T12:51:39.011Z,4.10
2018-05-23T12:54:12.564Z,4.33
2018-05-23T12:56:45.678Z,5.40
2018-05-23T12:59:19.119Z,4.40
2018-05-23T13:01:53.199Z,14.33
2018-05-23T13:04:25.900Z,5.03
2018-05-23T13:06:59.434Z,4.40
2018-05-23T13:09:33.556Z,3.60
2018-05-23T13:12:06.067Z,4.80
2018-05-23T13:14:39.567Z,3.63
2018-05-23T13:17:12.776Z,4.03
2018-05-23T13:19:45.533Z,3.97
2018-05-23T13:22:17.980Z,3.93
2018-05-23T13:24:52.501Z,3.90
2018-05-23T13:27:25.807Z,3.40
2018-05-23T13:29:58.634Z,3.60
2018-05-23T13:32:32.007Z,3.30
2018-05-23T13:35:05.099Z,2.80
2018-05-23T13:37:37.820Z,3.17
2018-05-23T13:40:10.992Z,4.03
2018-05-23T13:42:44.293Z,2.93
2018-05-23T13:45:17.624Z,5.20
2018-05-23T13:47:50.149Z,4.43
2018-05-23T13:50:23.599Z,4.30
2018-05-23T13:52:57.382Z,3.33
2018-05-23T13:55:30.298Z,3.73
2018-05-23T13:58:03.323Z,4.80
2018-05-23T14:00:35.791Z,5.20
2018-05-23T14:03:09.665Z,3.73
2018-05-23T14:05:42.962Z,4.00
2018-05-23T14:08:15.458Z,2.93
2018-05-23T14:10:47.965Z,3.03
2018-05-23T14:13:21.375Z,3.77
2018-05-23T14:15:54.864Z,3.97
2018-05-23T14:18:28.926Z,4.30
2018-05-23T14:21:01.620Z,3.27
2018-05-23T14:23:34.933Z,4.30
2018-05-23T14:26:07.394Z,5.37
2018-05-23T14:28:40.760Z,5.20
2018-05-23T14:31:14.938Z,4.37
2018-05-23T14:33:47.610Z,4.30
2018-05-23T14:36:20.201Z,3.50
2018-05-23T14:38:52.767Z,3.80
2018-05-23T14:41:25.297Z,4.03
2018-05-23T14:43:58.546Z,3.53
2018-05-23T14:46:32.037Z,3.50
2018-05-23T14:49:05.557Z,3.57
2018-05-23T14:51:38.841Z,3.93
2018-05-23T14:54:12.300Z,5.30
2018-05-23T14:56:44.981Z,5.37
2018-05-23T14:59:18.285Z,4.50
2018-05-23T15:01:50.913Z,4.93
2018-05-23T15:04:23.667Z,4.73
2018-05-23T15:06:56.181Z,5.80
2018-05-23T15:09:28.650Z,4.10
2018-05-23T15:12:01.204Z,4.70
2018-05-23T15:14:35.277Z,4.93
2018-05-23T15:17:08.064Z,4.37
2018-05-23T15:19:41.438Z,5.00
2018-05-23T15:22:16.625Z,4.20
2018-05-23T15:24:50.189Z,3.93
2018-05-23T15:27:22.812Z,4.33
2018-05-23T15:29:55.331Z,3.27
2018-05-23T15:32:28.595Z,4.23
2018-05-23T15:35:01.248Z,4.30
2018-05-23T15:37:34.649Z,3.47
2018-05-23T15:40:07.231Z,4.00
2018-05-23T15:42:40.667Z,3.33
2018-05-23T15:45:14.065Z,2.93
2018-05-23T15:47:47.428Z,3.17
2018-05-23T15:50:20.187Z,3.40
2018-05-23T15:52:53.562Z,4.87
2018-05-23T15:55:25.977Z,3.77
2018-05-23T15:57:58.631Z,3.80
2018-05-23T16:00:31.999Z,4.73
2018-05-23T16:03:05.561Z,6.50
2018-05-23T16:05:37.926Z,5.60
2018-05-23T16:08:10.591Z,5.57
2018-05-23T16:10:43.891Z,3.90
2018-05-23T16:13:16.535Z,5.93
2018-05-23T16:15:49.893Z,6.13
2018-05-23T16:18:23.255Z,6.33
2018-05-23T16:20:56.102Z,4.47
2018-05-23T16:23:29.316Z,3.93
2018-05-23T16:26:02.614Z,3.63
2018-05-23T16:28:35.843Z,4.27
2018-05-23T16:31:08.458Z,3.37
2018-05-23T16:33:41.678Z,4.53
2018-05-23T16:36:14.226Z,4.97
2018-05-23T16:38:47.721Z,5.13
2018-05-23T16:41:20.227Z,4.83
2018-05-23T16:43:53.642Z,4.00
2018-05-23T16:46:26.055Z,4.97
2018-05-23T16:48:59.443Z,4.20
2018-05-23T16:51:33.526Z,4.27
2018-05-23T16:54:06.196Z,4.90
2018-05-23T16:56:38.903Z,6.20
2018-05-23T16:59:12.465Z,5.10
2018-05-23T17:01:45.711Z,5.70
2018-05-23T17:04:19.099Z,4.00
2018-05-23T17:06:52.407Z,4.13
2018-05-23T17:09:25.877Z,4.77
2018-05-23T17:11:59.692Z,4.60
2018-05-23T17:14:32.143Z,4.37
2018-05-23T17:17:04.529Z,4.80
2018-05-23T17:19:37.876Z,3.50
2018-05-23T17:22:10.429Z,3.50
2018-05-23T17:24:42.936Z,4.40
2018-05-23T17:27:16.288Z,4.10
2018-05-23T17:29:49.040Z,5.43
2018-05-23T17:32:22.459Z,4.00
2018-05-23T17:34:55.267Z,4.60
2018-05-23T17:37:28.590Z,4.07
2018-05-23T17:40:01.047Z,4.40
2018-05-23T17:42:34.333Z,4.50
2018-05-23T17:45:06.960Z,4.00
2018-05-23T17:47:40.254Z,4.17
2018-05-23T17:50:13.640Z,4.17
2018-05-23T17:52:46.306Z,3.90
2018-05-23T17:55:18.796Z,4.00
2018-05-23T17:57:51.302Z,3.97
2018-05-23T18:00:23.777Z,4.00
2018-05-23T18:02:56.336Z,3.27
2018-05-23T18:05:29.592Z,3.70
2018-05-23T18:08:02.981Z,5.40
2018-05-23T18:10:36.286Z,5.43
2018-05-23T18:13:08.772Z,5.73
2018-05-23T18:15:41.245Z,5.40
2018-05-23T18:18:13.862Z,4.50
2018-05-23T18:20:47.827Z,4.10
2018-05-23T18:23:20.694Z,4.40
2018-05-23T18:25:53.970Z,7.07
2018-05-23T18:28:26.432Z,5.70
2018-05-23T18:30:59.733Z,4.00
2018-05-23T18:33:32.215Z,3.77
2018-05-23T18:36:04.874Z,4.50
2018-05-23T18:38:37.368Z,5.00
2018-05-23T18:41:09.885Z,4.83
2018-05-23T18:43:42.484Z,5.20
2018-05-23T18:46:14.933Z,5.57
2018-05-23T18:48:48.386Z,5.00
2018-05-23T18:51:20.774Z,5.70
2018-05-23T18:53:54.933Z,5.10
2018-05-23T18:56:28.035Z,5.80
2018-05-23T18:59:01.810Z,4.27
2018-05-23T19:01:34.592Z,5.80
2018-05-23T19:04:07.151Z,6.67
2018-05-23T19:06:40.485Z,5.50
2018-05-23T19:09:13.785Z,4.90
2018-05-23T19:11:51.117Z,4.93
2018-05-23T19:14:23.898Z,5.30
2018-05-23T19:16:57.794Z,5.67
2018-05-23T19:19:31.492Z,5.80
2018-05-23T19:22:05.506Z,3.87
2018-05-23T19:24:39.389Z,4.23
2018-05-23T19:27:12.517Z,3.70
2018-05-23T19:29:46.717Z,4.20
2018-05-23T19:32:20.080Z,4.33
2018-05-23T19:34:53.163Z,5.07
2018-05-23T19:37:27.233Z,3.70
2018-05-23T19:40:01.353Z,4.30
2018-05-23T19:42:35.711Z,4.00
2018-05-23T19:45:10.744Z,3.63
2018-05-23T19:47:45.178Z,3.70
2018-05-23T19:50:19.657Z,3.40
2018-05-23T19:52:53.096Z,3.53
2018-05-23T19:55:26.593Z,3.90
2018-05-23T19:58:02.022Z,4.20
2018-05-23T20:00:36.570Z,3.90
2018-05-23T20:03:11.230Z,4.23
2018-05-23T20:05:44.851Z,4.10
2018-05-23T20:08:20.979Z,3.90
2018-05-23T20:10:55.920Z,4.60
2018-05-23T20:13:30.014Z,5.27
2018-05-23T20:16:03.902Z,4.57
2018-05-23T20:18:37.337Z,6.17
2018-05-23T20:21:10.847Z,5.53
2018-05-23T20:23:43.888Z,5.73
2018-05-23T20:26:18.863Z,4.43
2018-05-23T20:28:52.093Z,5.37
2018-05-23T20:31:24.898Z,4.40
2018-05-23T20:33:59.093Z,6.20
2018-05-23T20:36:31.712Z,8.40
2018-05-23T20:39:04.858Z,7.07
2018-05-23T20:41:37.256Z,7.60
2018-05-23T20:44:10.638Z,6.00
2018-05-23T20:46:43.956Z,5.50
2018-05-23T20:49:17.271Z,6.33
2018-05-23T20:51:50.634Z,6.70
2018-05-23T20:54:24.005Z,8.10
2018-05-23T20:56:56.704Z,8.10
2018-05-23T20:59:30.213Z,7.57
2018-05-23T21:02:03.550Z,7.30
2018-05-23T21:04:36.784Z,9.30
2018-05-23T21:07:10.658Z,6.80
2018-05-23T21:09:43.282Z,5.97
2018-05-23T21:12:17.334Z,6.27
2018-05-23T21:14:49.837Z,6.67
2018-05-23T21:17:23.846Z,8.77
2018-05-23T21:19:57.140Z,8.13
2018-05-23T21:22:30.769Z,8.00
2018-05-23T21:25:04.220Z,9.00
2018-05-23T21:27:37.566Z,8.37
2018-05-23T21:30:10.928Z,7.90
2018-05-23T21:32:44.319Z,7.60
2018-05-23T21:35:16.862Z,7.60
2018-05-23T21:37:49.406Z,8.40
2018-05-23T21:40:22.776Z,7.87
2018-05-23T21:42:56.009Z,9.03
2018-05-23T21:45:28.510Z,9.40
2018-05-23T21:48:00.997Z,7.60
2018-05-23T21:50:34.460Z,8.23
2018-05-23T21:53:08.272Z,11.47
2018-05-23T21:55:41.882Z,8.77
2018-05-23T21:58:15.535Z,8.73
2018-05-23T22:00:48.187Z,9.37
2018-05-23T22:03:20.770Z,10.03
2018-05-23T22:05:53.255Z,10.40
2018-05-23T22:08:25.662Z,8.73
2018-05-23T22:10:59.026Z,10.17
2018-05-23T22:13:32.690Z,9.07
2018-05-23T22:16:05.733Z,9.57
2018-05-23T22:18:38.445Z,9.70
2018-05-23T22:21:11.780Z,9.13
2018-05-23T22:23:44.809Z,10.37
2018-05-23T22:26:18.068Z,8.90
2018-05-23T22:28:52.085Z,10.33
2018-05-23T22:31:24.929Z,8.87
2018-05-23T22:33:57.516Z,8.63
2018-05-23T22:36:31.751Z,10.33
2018-05-23T22:39:04.659Z,9.50
2018-05-23T22:41:38.045Z,9.33
2018-05-23T22:44:10.595Z,8.30
2018-05-23T22:46:43.239Z,10.30
2018-05-23T22:49:17.359Z,8.70
2018-05-23T22:51:50.010Z,10.30
2018-05-23T22:54:24.048Z,9.63
2018-05-23T22:56:56.635Z,9.50
2018-05-23T22:59:29.021Z,10.63
2018-05-23T23:02:01.512Z,10.37
2018-05-23T23:04:34.109Z,10.50
2018-05-23T23:07:07.237Z,10.70
2018-05-23T23:09:39.862Z,10.73
2018-05-23T23:12:12.499Z,9.77
2018-05-23T23:14:45.725Z,9.30
2018-05-23T23:17:18.185Z,9.30
2018-05-23T23:19:50.971Z,8.87
2018-05-23T23:22:37.901Z,9.83
2018-05-23T23:25:11.290Z,10.30
2018-05-23T23:27:44.437Z,8.10
2018-05-23T23:30:17.492Z,8.50
2018-05-23T23:32:51.547Z,7.57
2018-05-23T23:35:24.462Z,7.47
2018-05-23T23:37:56.872Z,7.60
2018-05-23T23:40:29.350Z,8.70
2018-05-23T23:43:02.724Z,7.53
2018-05-23T23:45:35.189Z,7.40
2018-05-23T23:48:08.542Z,9.00
2018-05-23T23:50:41.312Z,8.00
2018-05-23T23:53:14.658Z,6.87
2018-05-23T23:55:47.192Z,7.47
2018-05-23T23:58:21.199Z,6.33
